sensor_id;sensor_type;location;lat;lon;timestamp;temperature;humidity
74617;DHT22;63123;50.906;4.198;2023-08-06T00:00:07;20.60;69.00
74617;DHT22;63123;50.906;4.198;2023-08-06T00:02:33;20.60;69.00
74617;DHT22;63123;50.906;4.198;2023-08-06T00:04:59;20.60;69.00
74617;DHT22;63123;50.906;4.198;2023-08-06T00:07:25;20.60;69.00
74617;DHT22;63123;50.906;4.198;2023-08-06T00:09:50;20.60;69.00
74617;DHT22;63123;50.906;4.198;2023-08-06T00:12:16;20.60;69.00
74617;DHT22;63123;50.906;4.198;2023-08-06T00:14:42;20.60;69.10
74617;DHT22;63123;50.906;4.198;2023-08-06T00:17:08;20.60;69.10
74617;DHT22;63123;50.906;4.198;2023-08-06T00:19:33;20.60;69.10
74617;DHT22;63123;50.906;4.198;2023-08-06T00:21:59;20.60;69.10
74617;DHT22;63123;50.906;4.198;2023-08-06T00:24:25;20.60;69.10
74617;DHT22;63123;50.906;4.198;2023-08-06T00:26:50;20.60;69.10
74617;DHT22;63123;50.906;4.198;2023-08-06T00:29:16;20.60;69.10
74617;DHT22;63123;50.906;4.198;2023-08-06T00:31:41;20.60;69.10
74617;DHT22;63123;50.906;4.198;2023-08-06T00:34:07;20.60;69.10
74617;DHT22;63123;50.906;4.198;2023-08-06T00:36:33;20.60;69.10
74617;DHT22;63123;50.906;4.198;2023-08-06T00:38:59;20.60;69.10
74617;DHT22;63123;50.906;4.198;2023-08-06T00:41:24;20.60;69.10
74617;DHT22;63123;50.906;4.198;2023-08-06T00:43:50;20.60;69.10
74617;DHT22;63123;50.906;4.198;2023-08-06T00:46:15;20.60;69.10
74617;DHT22;63123;50.906;4.198;2023-08-06T00:48:42;20.60;69.10
74617;DHT22;63123;50.906;4.198;2023-08-06T00:51:10;20.60;69.10
74617;DHT22;63123;50.906;4.198;2023-08-06T00:53:37;20.60;69.10
74617;DHT22;63123;50.906;4.198;2023-08-06T00:56:03;20.60;69.10
74617;DHT22;63123;50.906;4.198;2023-08-06T00:58:29;20.60;69.10
74617;DHT22;63123;50.906;4.198;2023-08-06T01:00:55;20.60;69.10
74617;DHT22;63123;50.906;4.198;2023-08-06T01:03:21;20.60;69.10
74617;DHT22;63123;50.906;4.198;2023-08-06T01:05:47;20.60;69.10
74617;DHT22;63123;50.906;4.198;2023-08-06T01:13:54;20.60;69.10
74617;DHT22;63123;50.906;4.198;2023-08-06T01:16:24;20.60;69.20
74617;DHT22;63123;50.906;4.198;2023-08-06T01:18:49;20.60;69.20
74617;DHT22;63123;50.906;4.198;2023-08-06T01:21:19;20.60;69.20
74617;DHT22;63123;50.906;4.198;2023-08-06T01:23:45;20.60;69.20
74617;DHT22;63123;50.906;4.198;2023-08-06T01:28:59;20.50;69.10
74617;DHT22;63123;50.906;4.198;2023-08-06T01:31:31;20.60;69.20
74617;DHT22;63123;50.906;4.198;2023-08-06T01:33:58;20.60;69.20
74617;DHT22;63123;50.906;4.198;2023-08-06T01:36:25;20.60;69.20
74617;DHT22;63123;50.906;4.198;2023-08-06T01:38:53;20.60;69.20
74617;DHT22;63123;50.906;4.198;2023-08-06T01:41:19;20.60;69.20
74617;DHT22;63123;50.906;4.198;2023-08-06T01:43:44;20.60;69.20
74617;DHT22;63123;50.906;4.198;2023-08-06T01:46:10;20.60;69.20
74617;DHT22;63123;50.906;4.198;2023-08-06T01:48:36;20.60;69.20
74617;DHT22;63123;50.906;4.198;2023-08-06T01:51:04;20.60;69.20
74617;DHT22;63123;50.906;4.198;2023-08-06T01:53:30;20.60;69.20
74617;DHT22;63123;50.906;4.198;2023-08-06T01:55:57;20.60;69.20
74617;DHT22;63123;50.906;4.198;2023-08-06T01:58:22;20.60;69.20
74617;DHT22;63123;50.906;4.198;2023-08-06T02:00:48;20.60;69.20
74617;DHT22;63123;50.906;4.198;2023-08-06T02:03:14;20.60;69.20
74617;DHT22;63123;50.906;4.198;2023-08-06T02:05:40;20.60;69.20
74617;DHT22;63123;50.906;4.198;2023-08-06T02:08:05;20.60;69.20
74617;DHT22;63123;50.906;4.198;2023-08-06T02:10:31;20.60;69.20
74617;DHT22;63123;50.906;4.198;2023-08-06T02:12:57;20.60;69.20
74617;DHT22;63123;50.906;4.198;2023-08-06T02:15:23;20.60;69.20
74617;DHT22;63123;50.906;4.198;2023-08-06T02:17:48;20.60;69.20
74617;DHT22;63123;50.906;4.198;2023-08-06T02:20:14;20.60;69.20
74617;DHT22;63123;50.906;4.198;2023-08-06T02:22:39;20.60;69.20
74617;DHT22;63123;50.906;4.198;2023-08-06T02:25:05;20.60;69.20
74617;DHT22;63123;50.906;4.198;2023-08-06T02:27:31;20.60;69.20
74617;DHT22;63123;50.906;4.198;2023-08-06T02:29:56;20.60;69.20
74617;DHT22;63123;50.906;4.198;2023-08-06T02:32:22;20.50;69.10
74617;DHT22;63123;50.906;4.198;2023-08-06T02:34:48;20.50;69.10
74617;DHT22;63123;50.906;4.198;2023-08-06T02:37:13;20.60;69.20
74617;DHT22;63123;50.906;4.198;2023-08-06T02:39:39;20.50;69.10
74617;DHT22;63123;50.906;4.198;2023-08-06T02:42:08;20.60;69.10
74617;DHT22;63123;50.906;4.198;2023-08-06T02:44:34;20.60;69.10
74617;DHT22;63123;50.906;4.198;2023-08-06T02:47:00;20.60;69.20
74617;DHT22;63123;50.906;4.198;2023-08-06T02:49:26;20.60;69.20
74617;DHT22;63123;50.906;4.198;2023-08-06T02:51:52;20.60;69.20
74617;DHT22;63123;50.906;4.198;2023-08-06T02:54:20;20.50;69.10
74617;DHT22;63123;50.906;4.198;2023-08-06T02:56:46;20.60;69.20
74617;DHT22;63123;50.906;4.198;2023-08-06T02:59:12;20.60;69.20
74617;DHT22;63123;50.906;4.198;2023-08-06T03:01:38;20.60;69.20
74617;DHT22;63123;50.906;4.198;2023-08-06T03:04:04;20.50;69.10
74617;DHT22;63123;50.906;4.198;2023-08-06T03:06:29;20.50;69.10
74617;DHT22;63123;50.906;4.198;2023-08-06T03:08:55;20.50;69.10
74617;DHT22;63123;50.906;4.198;2023-08-06T03:11:21;20.50;69.10
74617;DHT22;63123;50.906;4.198;2023-08-06T03:13:49;20.50;69.10
74617;DHT22;63123;50.906;4.198;2023-08-06T03:16:15;20.60;69.20
74617;DHT22;63123;50.906;4.198;2023-08-06T03:18:40;20.50;69.20
74617;DHT22;63123;50.906;4.198;2023-08-06T03:21:06;20.60;69.20
74617;DHT22;63123;50.906;4.198;2023-08-06T03:23:32;20.60;69.30
74617;DHT22;63123;50.906;4.198;2023-08-06T03:26:03;20.50;69.10
74617;DHT22;63123;50.906;4.198;2023-08-06T03:28:29;20.60;69.20
74617;DHT22;63123;50.906;4.198;2023-08-06T03:31:02;20.60;69.20
74617;DHT22;63123;50.906;4.198;2023-08-06T03:33:28;20.60;69.20
74617;DHT22;63123;50.906;4.198;2023-08-06T03:35:54;20.60;69.20
74617;DHT22;63123;50.906;4.198;2023-08-06T03:38:20;20.60;69.30
74617;DHT22;63123;50.906;4.198;2023-08-06T03:40:49;20.60;69.20
74617;DHT22;63123;50.906;4.198;2023-08-06T03:43:15;20.50;69.20
74617;DHT22;63123;50.906;4.198;2023-08-06T03:45:40;20.60;69.20
74617;DHT22;63123;50.906;4.198;2023-08-06T03:48:07;20.60;69.20
74617;DHT22;63123;50.906;4.198;2023-08-06T03:50:32;20.50;69.10
74617;DHT22;63123;50.906;4.198;2023-08-06T03:52:58;20.50;69.20
74617;DHT22;63123;50.906;4.198;2023-08-06T03:55:24;20.60;69.20
74617;DHT22;63123;50.906;4.198;2023-08-06T03:57:49;20.60;69.20
74617;DHT22;63123;50.906;4.198;2023-08-06T04:00:15;20.60;69.20
74617;DHT22;63123;50.906;4.198;2023-08-06T04:02:40;20.50;69.10
74617;DHT22;63123;50.906;4.198;2023-08-06T04:05:06;20.50;69.10
74617;DHT22;63123;50.906;4.198;2023-08-06T04:07:32;20.50;69.10
74617;DHT22;63123;50.906;4.198;2023-08-06T04:09:59;20.60;69.20
74617;DHT22;63123;50.906;4.198;2023-08-06T04:12:26;20.50;69.10
74617;DHT22;63123;50.906;4.198;2023-08-06T04:14:52;20.50;69.10
74617;DHT22;63123;50.906;4.198;2023-08-06T04:17:18;20.50;69.10
74617;DHT22;63123;50.906;4.198;2023-08-06T04:19:51;20.60;69.10
74617;DHT22;63123;50.906;4.198;2023-08-06T04:22:18;20.50;69.10
74617;DHT22;63123;50.906;4.198;2023-08-06T04:24:44;20.60;69.10
74617;DHT22;63123;50.906;4.198;2023-08-06T04:27:10;20.60;69.10
74617;DHT22;63123;50.906;4.198;2023-08-06T04:29:37;20.60;69.10
74617;DHT22;63123;50.906;4.198;2023-08-06T04:32:04;20.50;69.00
74617;DHT22;63123;50.906;4.198;2023-08-06T04:34:30;20.60;69.00
74617;DHT22;63123;50.906;4.198;2023-08-06T04:36:56;20.50;69.00
74617;DHT22;63123;50.906;4.198;2023-08-06T04:39:21;20.60;69.10
74617;DHT22;63123;50.906;4.198;2023-08-06T04:41:47;20.60;69.00
74617;DHT22;63123;50.906;4.198;2023-08-06T04:44:13;20.60;69.10
74617;DHT22;63123;50.906;4.198;2023-08-06T04:46:38;20.50;69.50
74617;DHT22;63123;50.906;4.198;2023-08-06T04:49:04;20.50;68.90
74617;DHT22;63123;50.906;4.198;2023-08-06T04:51:29;20.60;69.00
74617;DHT22;63123;50.906;4.198;2023-08-06T04:53:57;20.60;68.90
74617;DHT22;63123;50.906;4.198;2023-08-06T04:56:22;20.50;68.90
74617;DHT22;63123;50.906;4.198;2023-08-06T04:58:48;20.50;68.90
74617;DHT22;63123;50.906;4.198;2023-08-06T05:01:14;20.60;69.00
74617;DHT22;63123;50.906;4.198;2023-08-06T05:03:40;20.50;68.90
74617;DHT22;63123;50.906;4.198;2023-08-06T05:06:05;20.50;68.90
74617;DHT22;63123;50.906;4.198;2023-08-06T05:08:31;20.60;69.00
74617;DHT22;63123;50.906;4.198;2023-08-06T05:10:56;20.50;68.90
74617;DHT22;63123;50.906;4.198;2023-08-06T05:13:22;20.50;68.90
74617;DHT22;63123;50.906;4.198;2023-08-06T05:15:48;20.60;69.00
74617;DHT22;63123;50.906;4.198;2023-08-06T05:18:14;20.60;69.00
74617;DHT22;63123;50.906;4.198;2023-08-06T05:20:41;20.60;68.90
74617;DHT22;63123;50.906;4.198;2023-08-06T05:23:07;20.50;68.90
74617;DHT22;63123;50.906;4.198;2023-08-06T05:25:34;20.60;68.90
74617;DHT22;63123;50.906;4.198;2023-08-06T05:28:01;20.60;69.00
74617;DHT22;63123;50.906;4.198;2023-08-06T05:30:27;20.50;68.90
74617;DHT22;63123;50.906;4.198;2023-08-06T05:32:53;20.60;69.00
74617;DHT22;63123;50.906;4.198;2023-08-06T05:35:18;20.50;68.90
74617;DHT22;63123;50.906;4.198;2023-08-06T05:37:44;20.50;68.90
74617;DHT22;63123;50.906;4.198;2023-08-06T05:40:10;20.50;69.00
74617;DHT22;63123;50.906;4.198;2023-08-06T05:42:35;20.60;69.00
74617;DHT22;63123;50.906;4.198;2023-08-06T05:45:01;20.60;69.00
74617;DHT22;63123;50.906;4.198;2023-08-06T05:47:27;20.50;68.90
74617;DHT22;63123;50.906;4.198;2023-08-06T05:49:52;20.50;68.90
74617;DHT22;63123;50.906;4.198;2023-08-06T05:52:18;20.50;68.90
74617;DHT22;63123;50.906;4.198;2023-08-06T05:54:43;20.60;69.00
74617;DHT22;63123;50.906;4.198;2023-08-06T05:57:09;20.60;69.00
74617;DHT22;63123;50.906;4.198;2023-08-06T05:59:35;20.50;68.90
74617;DHT22;63123;50.906;4.198;2023-08-06T06:02:00;20.60;69.00
74617;DHT22;63123;50.906;4.198;2023-08-06T06:04:26;20.60;69.00
74617;DHT22;63123;50.906;4.198;2023-08-06T06:06:52;20.60;68.90
74617;DHT22;63123;50.906;4.198;2023-08-06T06:09:18;20.50;68.90
74617;DHT22;63123;50.906;4.198;2023-08-06T06:11:43;20.60;68.90
74617;DHT22;63123;50.906;4.198;2023-08-06T06:14:09;20.50;68.80
74617;DHT22;63123;50.906;4.198;2023-08-06T06:16:34;20.60;68.90
74617;DHT22;63123;50.906;4.198;2023-08-06T06:19:00;20.60;68.90
74617;DHT22;63123;50.906;4.198;2023-08-06T06:21:26;20.50;68.80
74617;DHT22;63123;50.906;4.198;2023-08-06T06:23:51;20.60;68.80
74617;DHT22;63123;50.906;4.198;2023-08-06T06:26:18;20.60;68.80
74617;DHT22;63123;50.906;4.198;2023-08-06T06:28:43;20.60;68.80
74617;DHT22;63123;50.906;4.198;2023-08-06T06:31:09;20.50;68.80
74617;DHT22;63123;50.906;4.198;2023-08-06T06:33:35;20.50;68.80
74617;DHT22;63123;50.906;4.198;2023-08-06T06:36:01;20.60;68.80
74617;DHT22;63123;50.906;4.198;2023-08-06T06:38:29;20.60;68.90
74617;DHT22;63123;50.906;4.198;2023-08-06T06:40:55;20.60;68.80
74617;DHT22;63123;50.906;4.198;2023-08-06T06:43:21;20.60;68.80
74617;DHT22;63123;50.906;4.198;2023-08-06T06:45:47;20.50;68.70
74617;DHT22;63123;50.906;4.198;2023-08-06T06:48:17;20.50;68.60
74617;DHT22;63123;50.906;4.198;2023-08-06T06:50:43;20.50;68.70
74617;DHT22;63123;50.906;4.198;2023-08-06T06:53:12;20.50;68.60
74617;DHT22;63123;50.906;4.198;2023-08-06T06:55:37;20.50;68.70
74617;DHT22;63123;50.906;4.198;2023-08-06T06:58:03;20.50;68.70
74617;DHT22;63123;50.906;4.198;2023-08-06T07:00:29;20.50;68.60
74617;DHT22;63123;50.906;4.198;2023-08-06T07:02:54;20.50;68.70
74617;DHT22;63123;50.906;4.198;2023-08-06T07:05:20;20.60;68.70
74617;DHT22;63123;50.906;4.198;2023-08-06T07:07:45;20.50;68.60
74617;DHT22;63123;50.906;4.198;2023-08-06T07:10:11;20.50;68.60
74617;DHT22;63123;50.906;4.198;2023-08-06T07:12:37;20.60;68.80
74617;DHT22;63123;50.906;4.198;2023-08-06T07:15:11;20.60;68.60
74617;DHT22;63123;50.906;4.198;2023-08-06T07:17:37;20.50;68.50
74617;DHT22;63123;50.906;4.198;2023-08-06T07:20:03;20.50;68.60
74617;DHT22;63123;50.906;4.198;2023-08-06T07:22:29;20.60;68.60
74617;DHT22;63123;50.906;4.198;2023-08-06T07:24:55;20.60;68.60
74617;DHT22;63123;50.906;4.198;2023-08-06T07:27:21;20.50;68.50
74617;DHT22;63123;50.906;4.198;2023-08-06T07:29:46;20.50;68.60
74617;DHT22;63123;50.906;4.198;2023-08-06T07:32:13;20.60;68.50
74617;DHT22;63123;50.906;4.198;2023-08-06T07:34:39;20.60;68.40
74617;DHT22;63123;50.906;4.198;2023-08-06T07:37:05;20.60;68.40
74617;DHT22;63123;50.906;4.198;2023-08-06T07:39:31;20.50;68.40
74617;DHT22;63123;50.906;4.198;2023-08-06T07:41:56;20.50;68.40
74617;DHT22;63123;50.906;4.198;2023-08-06T07:44:22;20.50;68.40
74617;DHT22;63123;50.906;4.198;2023-08-06T07:46:49;20.50;68.40
74617;DHT22;63123;50.906;4.198;2023-08-06T07:49:14;20.50;68.40
74617;DHT22;63123;50.906;4.198;2023-08-06T07:51:40;20.60;68.40
74617;DHT22;63123;50.906;4.198;2023-08-06T07:54:06;20.60;68.40
74617;DHT22;63123;50.906;4.198;2023-08-06T07:56:32;20.60;68.30
74617;DHT22;63123;50.906;4.198;2023-08-06T07:58:57;20.50;68.30
74617;DHT22;63123;50.906;4.198;2023-08-06T08:01:23;20.50;68.20
74617;DHT22;63123;50.906;4.198;2023-08-06T08:03:49;20.60;68.20
74617;DHT22;63123;50.906;4.198;2023-08-06T08:06:14;20.50;68.20
74617;DHT22;63123;50.906;4.198;2023-08-06T08:08:40;20.60;68.20
74617;DHT22;63123;50.906;4.198;2023-08-06T08:11:06;20.60;68.20
74617;DHT22;63123;50.906;4.198;2023-08-06T08:13:32;20.60;68.20
74617;DHT22;63123;50.906;4.198;2023-08-06T08:15:58;20.50;68.20
74617;DHT22;63123;50.906;4.198;2023-08-06T08:18:25;20.50;68.10
74617;DHT22;63123;50.906;4.198;2023-08-06T08:20:50;20.50;68.20
74617;DHT22;63123;50.906;4.198;2023-08-06T08:23:16;20.50;68.70
74617;DHT22;63123;50.906;4.198;2023-08-06T08:25:42;20.60;68.20
74617;DHT22;63123;50.906;4.198;2023-08-06T08:28:07;20.60;68.10
74617;DHT22;63123;50.906;4.198;2023-08-06T08:30:33;20.50;68.00
74617;DHT22;63123;50.906;4.198;2023-08-06T08:32:59;20.60;68.10
74617;DHT22;63123;50.906;4.198;2023-08-06T08:35:24;20.60;68.20
74617;DHT22;63123;50.906;4.198;2023-08-06T08:37:50;20.50;68.10
74617;DHT22;63123;50.906;4.198;2023-08-06T08:40:16;20.60;68.20
74617;DHT22;63123;50.906;4.198;2023-08-06T08:42:43;20.60;68.10
74617;DHT22;63123;50.906;4.198;2023-08-06T08:45:13;20.60;68.10
74617;DHT22;63123;50.906;4.198;2023-08-06T08:47:40;20.50;68.10
74617;DHT22;63123;50.906;4.198;2023-08-06T08:50:08;20.60;68.10
74617;DHT22;63123;50.906;4.198;2023-08-06T08:52:36;20.50;68.10
74617;DHT22;63123;50.906;4.198;2023-08-06T08:55:04;20.60;68.10
74617;DHT22;63123;50.906;4.198;2023-08-06T08:57:30;20.60;68.10
74617;DHT22;63123;50.906;4.198;2023-08-06T08:59:56;20.60;68.00
74617;DHT22;63123;50.906;4.198;2023-08-06T09:02:22;20.60;68.00
74617;DHT22;63123;50.906;4.198;2023-08-06T09:04:49;20.50;67.90
74617;DHT22;63123;50.906;4.198;2023-08-06T09:07:18;20.50;68.00
74617;DHT22;63123;50.906;4.198;2023-08-06T09:09:48;20.60;68.00
74617;DHT22;63123;50.906;4.198;2023-08-06T09:12:16;20.60;68.00
74617;DHT22;63123;50.906;4.198;2023-08-06T09:14:42;20.60;68.00
74617;DHT22;63123;50.906;4.198;2023-08-06T09:17:08;20.50;67.90
74617;DHT22;63123;50.906;4.198;2023-08-06T09:19:36;20.50;68.00
74617;DHT22;63123;50.906;4.198;2023-08-06T09:22:02;20.50;68.00
74617;DHT22;63123;50.906;4.198;2023-08-06T09:24:27;20.50;67.90
74617;DHT22;63123;50.906;4.198;2023-08-06T09:26:53;20.50;67.90
74617;DHT22;63123;50.906;4.198;2023-08-06T09:29:20;20.60;68.00
74617;DHT22;63123;50.906;4.198;2023-08-06T09:31:48;20.50;67.90
74617;DHT22;63123;50.906;4.198;2023-08-06T09:34:20;20.50;68.00
74617;DHT22;63123;50.906;4.198;2023-08-06T09:36:48;20.60;68.10
74617;DHT22;63123;50.906;4.198;2023-08-06T09:39:16;20.60;68.00
74617;DHT22;63123;50.906;4.198;2023-08-06T09:41:42;20.60;68.00
74617;DHT22;63123;50.906;4.198;2023-08-06T09:44:19;20.60;68.00
74617;DHT22;63123;50.906;4.198;2023-08-06T09:46:50;20.50;67.90
74617;DHT22;63123;50.906;4.198;2023-08-06T09:49:17;20.50;67.90
74617;DHT22;63123;50.906;4.198;2023-08-06T09:51:44;20.50;68.00
74617;DHT22;63123;50.906;4.198;2023-08-06T09:54:12;20.60;68.00
74617;DHT22;63123;50.906;4.198;2023-08-06T09:56:38;20.60;68.00
74617;DHT22;63123;50.906;4.198;2023-08-06T09:59:06;20.60;68.00
74617;DHT22;63123;50.906;4.198;2023-08-06T10:01:35;20.50;67.90
74617;DHT22;63123;50.906;4.198;2023-08-06T10:04:03;20.50;68.00
74617;DHT22;63123;50.906;4.198;2023-08-06T10:06:29;20.60;67.90
74617;DHT22;63123;50.906;4.198;2023-08-06T10:08:55;20.60;67.90
74617;DHT22;63123;50.906;4.198;2023-08-06T10:11:23;20.60;67.90
74617;DHT22;63123;50.906;4.198;2023-08-06T10:13:51;20.50;67.80
74617;DHT22;63123;50.906;4.198;2023-08-06T10:16:19;20.60;67.90
74617;DHT22;63123;50.906;4.198;2023-08-06T10:18:47;20.50;67.80
74617;DHT22;63123;50.906;4.198;2023-08-06T10:21:13;20.50;67.80
74617;DHT22;63123;50.906;4.198;2023-08-06T10:23:40;20.60;67.90
74617;DHT22;63123;50.906;4.198;2023-08-06T10:26:06;20.60;67.80
74617;DHT22;63123;50.906;4.198;2023-08-06T10:28:41;20.60;67.90
74617;DHT22;63123;50.906;4.198;2023-08-06T10:31:07;20.50;67.80
74617;DHT22;63123;50.906;4.198;2023-08-06T10:33:43;20.60;68.00
74617;DHT22;63123;50.906;4.198;2023-08-06T10:36:10;20.50;67.90
74617;DHT22;63123;50.906;4.198;2023-08-06T10:38:46;20.60;67.90
74617;DHT22;63123;50.906;4.198;2023-08-06T10:41:23;20.50;67.90
74617;DHT22;63123;50.906;4.198;2023-08-06T10:43:50;20.50;67.90
74617;DHT22;63123;50.906;4.198;2023-08-06T10:46:26;20.50;67.80
74617;DHT22;63123;50.906;4.198;2023-08-06T10:48:52;20.50;67.80
74617;DHT22;63123;50.906;4.198;2023-08-06T10:51:18;20.50;67.80
74617;DHT22;63123;50.906;4.198;2023-08-06T10:53:46;20.60;67.80
74617;DHT22;63123;50.906;4.198;2023-08-06T10:56:15;20.60;67.80
74617;DHT22;63123;50.906;4.198;2023-08-06T10:58:42;20.60;67.80
74617;DHT22;63123;50.906;4.198;2023-08-06T11:01:08;20.50;67.80
74617;DHT22;63123;50.906;4.198;2023-08-06T11:03:34;20.60;67.80
74617;DHT22;63123;50.906;4.198;2023-08-06T11:06:01;20.60;67.80
74617;DHT22;63123;50.906;4.198;2023-08-06T11:08:34;20.60;67.80
74617;DHT22;63123;50.906;4.198;2023-08-06T11:11:16;20.50;67.70
74617;DHT22;63123;50.906;4.198;2023-08-06T11:13:44;20.50;67.60
74617;DHT22;63123;50.906;4.198;2023-08-06T11:16:15;20.60;67.60
74617;DHT22;63123;50.906;4.198;2023-08-06T11:18:42;20.50;67.50
74617;DHT22;63123;50.906;4.198;2023-08-06T11:21:08;20.50;67.40
74617;DHT22;63123;50.906;4.198;2023-08-06T11:23:35;20.50;67.40
74617;DHT22;63123;50.906;4.198;2023-08-06T11:26:01;20.50;67.40
74617;DHT22;63123;50.906;4.198;2023-08-06T11:28:27;20.50;67.50
74617;DHT22;63123;50.906;4.198;2023-08-06T11:30:53;20.50;67.40
74617;DHT22;63123;50.906;4.198;2023-08-06T11:33:27;20.50;67.40
74617;DHT22;63123;50.906;4.198;2023-08-06T11:35:58;20.50;67.40
74617;DHT22;63123;50.906;4.198;2023-08-06T11:38:28;20.50;67.40
74617;DHT22;63123;50.906;4.198;2023-08-06T11:40:54;20.50;67.50
74617;DHT22;63123;50.906;4.198;2023-08-06T11:43:21;20.50;67.70
74617;DHT22;63123;50.906;4.198;2023-08-06T11:45:51;20.60;67.60
74617;DHT22;63123;50.906;4.198;2023-08-06T11:48:19;20.60;67.60
74617;DHT22;63123;50.906;4.198;2023-08-06T11:50:45;20.50;67.60
74617;DHT22;63123;50.906;4.198;2023-08-06T11:53:14;20.50;67.50
74617;DHT22;63123;50.906;4.198;2023-08-06T11:55:40;20.50;67.60
74617;DHT22;63123;50.906;4.198;2023-08-06T11:58:06;20.50;67.50
74617;DHT22;63123;50.906;4.198;2023-08-06T12:00:32;20.50;67.50
74617;DHT22;63123;50.906;4.198;2023-08-06T12:02:58;20.50;67.50
74617;DHT22;63123;50.906;4.198;2023-08-06T12:05:29;20.50;67.60
74617;DHT22;63123;50.906;4.198;2023-08-06T12:07:56;20.50;68.20
74617;DHT22;63123;50.906;4.198;2023-08-06T12:10:26;20.60;67.60
74617;DHT22;63123;50.906;4.198;2023-08-06T12:12:52;20.60;67.60
74617;DHT22;63123;50.906;4.198;2023-08-06T12:15:17;20.60;67.60
74617;DHT22;63123;50.906;4.198;2023-08-06T12:17:43;20.60;67.50
74617;DHT22;63123;50.906;4.198;2023-08-06T12:20:09;20.60;67.60
74617;DHT22;63123;50.906;4.198;2023-08-06T12:22:36;20.50;67.50
74617;DHT22;63123;50.906;4.198;2023-08-06T12:25:08;20.50;67.50
74617;DHT22;63123;50.906;4.198;2023-08-06T12:27:38;20.50;67.40
74617;DHT22;63123;50.906;4.198;2023-08-06T12:30:05;20.60;67.50
74617;DHT22;63123;50.906;4.198;2023-08-06T12:32:31;20.50;67.40
74617;DHT22;63123;50.906;4.198;2023-08-06T12:34:57;20.50;67.50
74617;DHT22;63123;50.906;4.198;2023-08-06T12:37:24;20.50;67.60
74617;DHT22;63123;50.906;4.198;2023-08-06T12:39:50;20.50;67.60
74617;DHT22;63123;50.906;4.198;2023-08-06T12:42:16;20.50;67.50
74617;DHT22;63123;50.906;4.198;2023-08-06T12:44:41;20.50;67.50
74617;DHT22;63123;50.906;4.198;2023-08-06T12:47:07;20.60;67.60
74617;DHT22;63123;50.906;4.198;2023-08-06T12:49:33;20.60;67.50
74617;DHT22;63123;50.906;4.198;2023-08-06T12:51:59;20.60;67.60
74617;DHT22;63123;50.906;4.198;2023-08-06T12:54:25;20.50;67.50
74617;DHT22;63123;50.906;4.198;2023-08-06T12:56:51;20.50;67.50
74617;DHT22;63123;50.906;4.198;2023-08-06T12:59:17;20.60;67.50
74617;DHT22;63123;50.906;4.198;2023-08-06T13:01:43;20.60;67.60
74617;DHT22;63123;50.906;4.198;2023-08-06T13:04:09;20.60;67.70
74617;DHT22;63123;50.906;4.198;2023-08-06T13:06:36;20.60;67.60
74617;DHT22;63123;50.906;4.198;2023-08-06T13:09:12;20.50;67.60
74617;DHT22;63123;50.906;4.198;2023-08-06T13:11:39;20.50;67.60
74617;DHT22;63123;50.906;4.198;2023-08-06T13:14:07;20.50;67.60
74617;DHT22;63123;50.906;4.198;2023-08-06T13:16:37;20.60;67.50
74617;DHT22;63123;50.906;4.198;2023-08-06T13:19:03;20.60;67.50
74617;DHT22;63123;50.906;4.198;2023-08-06T13:21:58;20.50;67.50
74617;DHT22;63123;50.906;4.198;2023-08-06T13:24:21;20.60;67.50
74617;DHT22;63123;50.906;4.198;2023-08-06T13:26:46;20.50;67.40
74617;DHT22;63123;50.906;4.198;2023-08-06T13:29:12;20.60;67.50
74617;DHT22;63123;50.906;4.198;2023-08-06T13:31:38;20.50;67.40
74617;DHT22;63123;50.906;4.198;2023-08-06T13:34:03;20.50;67.40
74617;DHT22;63123;50.906;4.198;2023-08-06T13:36:29;20.60;67.40
74617;DHT22;63123;50.906;4.198;2023-08-06T13:38:56;20.60;67.40
74617;DHT22;63123;50.906;4.198;2023-08-06T13:41:21;20.50;67.30
74617;DHT22;63123;50.906;4.198;2023-08-06T13:43:48;20.60;67.50
74617;DHT22;63123;50.906;4.198;2023-08-06T13:46:13;20.50;67.30
74617;DHT22;63123;50.906;4.198;2023-08-06T13:48:44;20.60;67.30
74617;DHT22;63123;50.906;4.198;2023-08-06T13:51:11;20.50;67.30
74617;DHT22;63123;50.906;4.198;2023-08-06T13:53:37;20.50;67.20
74617;DHT22;63123;50.906;4.198;2023-08-06T13:56:04;20.60;67.20
74617;DHT22;63123;50.906;4.198;2023-08-06T13:58:29;20.60;67.20
74617;DHT22;63123;50.906;4.198;2023-08-06T14:00:55;20.50;67.10
74617;DHT22;63123;50.906;4.198;2023-08-06T14:03:22;20.50;67.10
74617;DHT22;63123;50.906;4.198;2023-08-06T14:05:47;20.60;67.10
74617;DHT22;63123;50.906;4.198;2023-08-06T14:08:13;20.50;67.10
74617;DHT22;63123;50.906;4.198;2023-08-06T14:10:39;20.50;67.00
74617;DHT22;63123;50.906;4.198;2023-08-06T14:13:05;20.60;67.10
74617;DHT22;63123;50.906;4.198;2023-08-06T14:15:30;20.50;67.00
74617;DHT22;63123;50.906;4.198;2023-08-06T14:17:56;20.50;67.10
74617;DHT22;63123;50.906;4.198;2023-08-06T14:20:21;20.50;67.00
74617;DHT22;63123;50.906;4.198;2023-08-06T14:22:47;20.60;67.10
74617;DHT22;63123;50.906;4.198;2023-08-06T14:25:13;20.60;67.20
74617;DHT22;63123;50.906;4.198;2023-08-06T14:27:38;20.50;67.10
74617;DHT22;63123;50.906;4.198;2023-08-06T14:30:06;20.60;67.10
74617;DHT22;63123;50.906;4.198;2023-08-06T14:32:32;20.50;67.00
74617;DHT22;63123;50.906;4.198;2023-08-06T14:34:58;20.50;67.00
74617;DHT22;63123;50.906;4.198;2023-08-06T14:37:25;20.50;67.10
74617;DHT22;63123;50.906;4.198;2023-08-06T14:39:51;20.50;67.00
74617;DHT22;63123;50.906;4.198;2023-08-06T14:42:17;20.50;67.20
74617;DHT22;63123;50.906;4.198;2023-08-06T14:44:43;20.50;67.20
74617;DHT22;63123;50.906;4.198;2023-08-06T14:47:09;20.60;67.20
74617;DHT22;63123;50.906;4.198;2023-08-06T14:49:34;20.50;67.10
74617;DHT22;63123;50.906;4.198;2023-08-06T14:52:00;20.50;67.10
74617;DHT22;63123;50.906;4.198;2023-08-06T14:54:27;20.50;67.20
74617;DHT22;63123;50.906;4.198;2023-08-06T14:56:53;20.50;67.20
74617;DHT22;63123;50.906;4.198;2023-08-06T14:59:19;20.50;67.10
74617;DHT22;63123;50.906;4.198;2023-08-06T15:01:44;20.50;67.20
74617;DHT22;63123;50.906;4.198;2023-08-06T15:04:10;20.50;67.20
74617;DHT22;63123;50.906;4.198;2023-08-06T15:06:35;20.50;67.20
74617;DHT22;63123;50.906;4.198;2023-08-06T15:09:01;20.50;67.20
74617;DHT22;63123;50.906;4.198;2023-08-06T15:11:27;20.60;67.20
74617;DHT22;63123;50.906;4.198;2023-08-06T15:13:53;20.50;67.00
74617;DHT22;63123;50.906;4.198;2023-08-06T15:16:18;20.50;66.90
74617;DHT22;63123;50.906;4.198;2023-08-06T15:18:44;20.60;67.00
74617;DHT22;63123;50.906;4.198;2023-08-06T15:21:10;20.50;66.90
74617;DHT22;63123;50.906;4.198;2023-08-06T15:23:35;20.50;66.90
74617;DHT22;63123;50.906;4.198;2023-08-06T15:26:02;20.50;66.70
74617;DHT22;63123;50.906;4.198;2023-08-06T15:28:28;20.50;66.80
74617;DHT22;63123;50.906;4.198;2023-08-06T15:30:54;20.60;66.90
74617;DHT22;63123;50.906;4.198;2023-08-06T15:33:20;20.60;66.90